• Join FlightAware (Why Join?)
  • Login
  • US Flag 
03:33PM EDT


 

Airport Tracker/Info


-or-


 

Live Flight TrackerFlight Track Log ✈ UAL33 ✈ 06-Aug-2013 ✈ RJAA / NRT - KLAX

Flight Track Log - Related Links

Times and Time Zones

All times are in EDT time to prevent confusion due to time zone crossing. See the UAL33 flight status page for this flight to view local times or setup timezone preferences in your user account.

Time Position Orientation Groundspeed Altitude Reporting Facility
EDT Latitude Longitude Course Direction KTS MPH feet Rate Location/Type
04:43AM 35.7170 140.4100 148° Southeast 170 196 2,600  Level FlightAware
04:44AM 35.6990 140.4230 150° Southeast 175 201 3,400 1,500 Climbing FlightAware
04:44AM 35.6800 140.4370 149° Southeast 210 242 3,800 1,500 Climbing FlightAware
04:44AM 35.6440 140.4620 151° Southeast 258 297 4,600 1,860 Climbing FlightAware
04:45AM 35.6280 140.4740 149° Southeast 270 311 5,100 2,280 Climbing FlightAware
04:45AM 35.6060 140.4900 149° Southeast 274 315 6,000 2,700 Climbing FlightAware
04:45AM 35.5840 140.5050 151° Southeast 279 321 6,900 2,700 Climbing FlightAware
04:46AM 35.5620 140.5220 148° Southeast 283 326 7,800 2,460 Climbing FlightAware
04:46AM 35.5460 140.5360 145° Southeast 288 331 8,300 2,400 Climbing FlightAware
04:46AM 35.5400 140.5480 122° Southeast 290 334 8,700 2,460 Climbing FlightAware
04:46AM 35.5380 140.5530 116° Southeast 291 335 8,800 2,460 Climbing FlightAware
04:46AM 35.5350 140.5670 105° East 293 337 9,200 2,520 Climbing FlightAware
04:47AM 35.5310 140.6000 98° East 298 343 10,000 1,800 Climbing FlightAware
04:47AM 35.5270 140.6620 95° East 326 375 10,900 1,200 Climbing FlightAware
04:48AM 35.5220 140.7340 95° East 366 421 11,500 1,140 Climbing FlightAware
04:48AM 35.5160 140.8030 96° East 391 450 12,200 1,800 Climbing FlightAware
04:49AM 35.5100 140.8840 95° East 402 463 13,600 2,160 Climbing FlightAware
04:50AM 35.5030 140.9660 96° East 411 473 14,800 1,140 Climbing FlightAware
04:50AM 35.4960 141.0500 96° East 416 479 15,000 120 Climbing FlightAware
04:51AM 35.4860 141.1140 101° East 409 471 15,000 600 Level FlightAware
04:51AM 35.4570 141.2130 110° East 416 479 15,800 1,440 Climbing FlightAware
04:52AM 35.4290 141.3060 110° East 425 489 17,100 1,860 Climbing FlightAware
04:53AM 35.4040 141.3880 110° East 432 497 18,200 1,800 Climbing FlightAware
04:53AM 35.3780 141.4710 111° Southeast 439 505 19,300 1,800 Climbing FlightAware
04:54AM 35.3530 141.5530 110° East 446 513 20,300 1,560 Climbing FlightAware
04:54AM 35.3280 141.6320 111° Southeast 456 525 21,100 1,500 Climbing FlightAware
04:55AM 35.3010 141.7210 110° East 463 533 22,100 1,500 Climbing FlightAware
04:56AM 35.2740 141.8060 111° Southeast 469 540 22,900 1,320 Climbing FlightAware
04:56AM 35.2470 141.8950 110° East 472 543 23,700 1,320 Climbing FlightAware
04:57AM 35.2190 141.9840 111° Southeast 479 551 24,500 1,320 Climbing FlightAware
04:57AM 35.1870 142.0850 111° Southeast 484 557 25,400 1,260 Climbing FlightAware
04:58AM 35.1670 142.1790 105° East 494 568 26,100 1,080 Climbing FlightAware
04:59AM 35.1680 142.2610 89° East 499 574 26,600 1,080 Climbing FlightAware
04:59AM 35.1890 142.3580 75° East 501 577 27,300 1,200 Climbing FlightAware
04:59AM 35.2060 142.4090 68° East 503 579 27,700 840 Climbing FlightAware
05:01AM 35.2540 142.5590 69° East 511 588 28,600 960 Climbing FlightAware
05:01AM 35.3080 142.7300 69° East 517 595 29,600 1,020 Climbing FlightAware
05:02AM 35.3340 142.8080 68° East 525 604 30,000 840 Climbing FlightAware
05:03AM 35.3690 142.9200 69° East 528 608 30,600 300 Climbing FlightAware
05:04AM 35.4220 143.0810 68° East 528 608 30,600 1,020 Level FlightAware
05:04AM 35.4630 143.2190 70° East 532 612 32,500 1,560 Climbing FlightAware
05:05AM 35.4990 143.3320 69° East 532 612 32,800 960 Climbing FlightAware
05:07AM 35.5830 143.6010 69° East 528 608 34,700 1,020 Climbing FlightAware
05:07AM 35.6170 143.7160 70° East 526 605 35,100 780 Climbing FlightAware
05:08AM 35.6550 143.8370 69° East 522 601 35,900 540 Climbing FlightAware
05:09AM 35.6800 143.9250 71° East 522 601 35,900 960 Level FlightAware
05:09AM 35.7140 144.0280 68° East 519 597 37,000 960 Climbing FlightAware
05:10AM 35.7480 144.1400 69° East 519 597 37,000  Level FlightAware
05:11AM 35.7860 144.2640 69° East 519 597 37,000  Level FlightAware
05:11AM 35.8250 144.3910 69° East 519 597 37,000  Level FlightAware
05:12AM 35.8690 144.5390 70° East 517 595 37,000  Level FlightAware
05:13AM 35.9060 144.6640 70° East 518 596 37,000  Level FlightAware
05:14AM 35.9500 144.8100 70° East 518 596 37,000  Level FlightAware
05:15AM 35.9800 144.9140 70° East 519 597 37,000  Level FlightAware
05:17AM 36.1243 145.2043 58° Northeast  Level Estimated
05:18AM 36.1966 145.3505 58° Northeast  Level Estimated
05:19AM 36.2687 145.4971 59° Northeast  Level Estimated
05:20AM 36.3405 145.6437 59° Northeast  Level Estimated
05:21AM 36.4121 145.7905 59° Northeast  Level Estimated
05:22AM 36.4836 145.9376 59° Northeast  Level Estimated
05:23AM 36.5548 146.0850 59° Northeast  Level Estimated
05:24AM 36.6259 146.2327 59° Northeast  Level Estimated
05:25AM 36.6968 146.3806 59° Northeast  Level Estimated
05:26AM 36.7675 146.5288 59° Northeast  Level Estimated
05:27AM 36.8381 146.6773 59° Northeast  Level Estimated
05:28AM 36.9084 146.8260 59° Northeast  Level Estimated
05:29AM 36.9786 146.9750 59° Northeast  Level Estimated
05:30AM 37.0485 147.1243 60° Northeast  Level Estimated
05:31AM 37.1183 147.2739 60° Northeast  Level Estimated
05:32AM 37.1879 147.4238 60° Northeast  Level Estimated
05:33AM 37.2573 147.5739 60° Northeast  Level Estimated
05:34AM 37.3265 147.7243 60° Northeast  Level Estimated
05:35AM 37.3956 147.8750 60° Northeast  Level Estimated
05:36AM 37.4644 148.0259 60° Northeast  Level Estimated
05:37AM 37.5330 148.1771 60° Northeast  Level Estimated
05:38AM 37.6015 148.3286 60° Northeast  Level Estimated
05:39AM 37.6697 148.4804 60° Northeast  Level Estimated
05:40AM 37.7378 148.6325 60° Northeast  Level Estimated
05:41AM 37.8057 148.7849 61° Northeast  Level Estimated
05:42AM 37.8733 148.9375 61° Northeast  Level Estimated
05:43AM 37.9408 149.0904 61° Northeast  Level Estimated
05:44AM 38.0081 149.2436 61° Northeast  Level Estimated
05:45AM 38.0751 149.3970 61° Northeast  Level Estimated
05:46AM 38.1420 149.5508 61° Northeast  Level Estimated
05:47AM 38.2087 149.7048 61° Northeast  Level Estimated
05:48AM 38.2752 149.8591 61° Northeast  Level Estimated
05:49AM 38.3414 150.0137 61° Northeast  Level Estimated
05:50AM 38.4075 150.1686 61° Northeast  Level Estimated
05:51AM 38.4733 150.3238 61° Northeast  Level Estimated
05:52AM 38.5390 150.4792 62° Northeast  Level Estimated
05:53AM 38.6045 150.6350 62° Northeast  Level Estimated
05:54AM 38.6697 150.7910 62° Northeast  Level Estimated
05:55AM 38.7347 150.9473 62° Northeast  Level Estimated
05:56AM 38.7995 151.1039 62° Northeast  Level Estimated
05:57AM 38.8642 151.2607 62° Northeast  Level Estimated
05:58AM 38.9286 151.4179 62° Northeast  Level Estimated
05:59AM 38.9928 151.5753 62° Northeast  Level Estimated
06:00AM 39.0568 151.7330 62° Northeast  Level Estimated
06:01AM 39.1205 151.8910 62° Northeast  Level Estimated
06:02AM 39.1841 152.0493 63° Northeast  Level Estimated
06:03AM 39.2474 152.2079 63° Northeast  Level Estimated
06:04AM 39.3106 152.3668 63° Northeast  Level Estimated
06:05AM 39.3735 152.5259 63° Northeast  Level Estimated
06:06AM 39.4362 152.6854 63° Northeast  Level Estimated
06:07AM 39.5086 152.8706 63° Northeast  Level Estimated
06:08AM 39.5807 153.0562 63° Northeast  Level Estimated
06:09AM 39.6526 153.2422 63° Northeast  Level Estimated
06:10AM 39.7241 153.4286 63° Northeast  Level Estimated
06:11AM 39.7953 153.6154 64° Northeast  Level Estimated
06:12AM 39.8663 153.8026 64° Northeast  Level Estimated
06:13AM 39.9369 153.9902 64° Northeast  Level Estimated
06:14AM 40.0073 154.1781 64° Northeast  Level Estimated
06:15AM 40.0773 154.3664 64° Northeast  Level Estimated
06:16AM 40.1470 154.5552 64° Northeast  Level Estimated
06:17AM 40.2164 154.7443 64° Northeast  Level Estimated
06:18AM 40.2855 154.9338 64° Northeast  Level Estimated
06:19AM 40.3544 155.1236 65° Northeast  Level Estimated
06:20AM 40.4228 155.3139 65° Northeast  Level Estimated
06:21AM 40.4910 155.5046 65° Northeast  Level Estimated
06:22AM 40.5589 155.6956 65° Northeast  Level Estimated
06:23AM 40.6264 155.8870 65° Northeast  Level Estimated
06:24AM 40.6937 156.0789 65° Northeast  Level Estimated
06:25AM 40.7606 156.2711 65° Northeast  Level Estimated
06:26AM 40.8272 156.4637 65° Northeast  Level Estimated
06:27AM 40.8934 156.6566 66° East  Level Estimated
06:28AM 40.9594 156.8500 66° East  Level Estimated
06:29AM 41.0250 157.0437 66° East  Level Estimated
06:30AM 41.0903 157.2379 66° East  Level Estimated
06:31AM 41.1553 157.4324 66° East  Level Estimated
06:32AM 41.2199 157.6273 66° East  Level Estimated
06:33AM 41.2842 157.8226 66° East  Level Estimated
06:34AM 41.3482 158.0182 66° East  Level Estimated
06:35AM 41.4119 158.2143 67° East  Level Estimated
06:36AM 41.4752 158.4108 67° East  Level Estimated
06:37AM 41.5382 158.6076 67° East  Level Estimated
06:38AM 41.6008 158.8048 67° East  Level Estimated
06:39AM 41.6632 159.0024 67° East  Level Estimated
06:40AM 41.7251 159.2003 67° East  Level Estimated
06:41AM 41.7868 159.3987 67° East  Level Estimated
06:42AM 41.8480 159.5974 67° East  Level Estimated
06:43AM 41.9090 159.7965 68° East  Level Estimated
06:44AM 41.9696 159.9960 68° East  Level Estimated
06:45AM 42.0299 160.1959 68° East  Level Estimated
06:46AM 42.0898 160.3961 68° East  Level Estimated
06:47AM 42.1493 160.5968 68° East  Level Estimated
06:48AM 42.2085 160.7978 68° East  Level Estimated
06:49AM 42.2674 160.9991 68° East  Level Estimated
06:50AM 42.3259 161.2009 69° East  Level Estimated
06:51AM 42.3841 161.4030 69° East  Level Estimated
06:52AM 42.4419 161.6055 69° East  Level Estimated
06:53AM 42.4993 161.8084 69° East  Level Estimated
06:54AM 42.5564 162.0116 69° East  Level Estimated
06:55AM 42.6131 162.2153 69° East  Level Estimated
06:56AM 42.6695 162.4193 69° East  Level Estimated
06:57AM 42.7255 162.6236 69° East  Level Estimated
06:58AM 42.7811 162.8283 70° East  Level Estimated
06:59AM 42.8364 163.0334 70° East  Level Estimated
07:00AM 42.8913 163.2389 70° East  Level Estimated
07:01AM 42.9458 163.4447 70° East  Level Estimated
07:02AM 43.0000 163.6509 70° East  Level Estimated
07:03AM 43.0537 163.8575 70° East  Level Estimated
07:04AM 43.1072 164.0644 70° East  Level Estimated
07:05AM 43.1602 164.2716 71° East  Level Estimated
07:06AM 43.2129 164.4793 71° East  Level Estimated
07:07AM 43.2652 164.6873 71° East  Level Estimated
07:08AM 43.3171 164.8956 71° East  Level Estimated
07:09AM 43.3686 165.1043 71° East  Level Estimated
07:10AM 43.4198 165.3133 71° East  Level Estimated
07:11AM 43.4706 165.5227 71° East  Level Estimated
07:12AM 43.5210 165.7325 72° East  Level Estimated
07:13AM 43.5710 165.9426 72° East  Level Estimated
07:14AM 43.6206 166.1530 72° East  Level Estimated
07:15AM 43.6699 166.3638 72° East  Level Estimated
07:16AM 43.7187 166.5750 72° East  Level Estimated
07:17AM 43.7672 166.7865 72° East  Level Estimated
07:18AM 43.8152 166.9983 72° East  Level Estimated
07:19AM 43.8629 167.2105 73° East  Level Estimated
07:20AM 43.9102 167.4230 73° East  Level Estimated
07:21AM 43.9571 167.6358 73° East  Level Estimated
07:22AM 44.0036 167.8490 73° East  Level Estimated
07:23AM 44.0497 168.0625 73° East  Level Estimated
07:23AM 41.2500 167.1500 70° East 521 600 38,000  Level Oakland Oceanic (ODAPS)
07:24AM 44.0954 168.2764 73° East  Level Estimated
07:25AM 44.1407 168.4905 74° East  Level Estimated
07:26AM 44.1856 168.7050 74° East  Level Estimated
07:27AM 44.2301 168.9198 74° East  Level Estimated
07:28AM 44.2742 169.1350 74° East  Level Estimated
07:29AM 41.5868 168.3887 70° East 521 600 38,000  Level FlightAware Transoceanic
07:30AM 41.6338 168.5667 71° East 521 600 38,000  Level FlightAware Transoceanic
07:31AM 41.6805 168.7450 71° East 521 600 38,000  Level FlightAware Transoceanic
07:32AM 41.7270 168.9235 71° East 521 600 38,000  Level FlightAware Transoceanic
07:33AM 41.7732 169.1023 71° East 521 600 38,000  Level FlightAware Transoceanic
07:34AM 41.8191 169.2813 71° East 521 600 38,000  Level FlightAware Transoceanic
07:35AM 41.8648 169.4606 71° East 521 600 38,000  Level FlightAware Transoceanic
07:36AM 41.9101 169.6401 71° East 521 600 38,000  Level FlightAware Transoceanic
07:37AM 41.9552 169.8199 71° East 521 600 38,000  Level FlightAware Transoceanic
07:37AM 41.9167 169.6833 70° East 525 604 38,000  Level Oakland Oceanic (ODAPS)
07:38AM 42.0000 170.0000 71° East 521 600 38,000  Level FlightAware Transoceanic
07:39AM 42.0465 170.1859 71° East 521 600 38,000  Level FlightAware Transoceanic
07:39AM 42.0500 170.2000 71° East 520 598 38,000  Level Oakland Oceanic (ODAPS)
07:40AM 42.0927 170.3720 72° East 521 600 38,000  Level FlightAware Transoceanic
07:41AM 42.1386 170.5585 72° East 521 600 38,000  Level FlightAware Transoceanic
07:42AM 42.1842 170.7451 72° East 521 600 38,000  Level FlightAware Transoceanic
07:43AM 42.2295 170.9321 72° East 525 604 38,000  Level FlightAware Transoceanic
07:44AM 42.2745 171.1193 72° East 525 604 38,000  Level FlightAware Transoceanic
07:45AM 42.3221 171.3194 72° East 520 598 38,000  Level FlightAware Transoceanic
07:46AM 42.3664 171.5069 72° East 520 598 38,000  Level FlightAware Transoceanic
07:47AM 42.4104 171.6947 72° East 520 598 38,000  Level FlightAware Transoceanic
07:48AM 42.4541 171.8827 73° East 520 598 38,000  Level FlightAware Transoceanic
07:49AM 42.4974 172.0710 73° East 520 598 38,000  Level FlightAware Transoceanic
07:50AM 42.5405 172.2595 73° East 520 598 38,000  Level FlightAware Transoceanic
07:50AM 42.5333 172.2500 73° East 518 596 38,000  Level Oakland Oceanic (ODAPS)
07:51AM 42.5832 172.4483 73° East 520 598 38,000  Level FlightAware Transoceanic
07:52AM 42.6257 172.6374 73° East 520 598 38,000  Level FlightAware Transoceanic
07:53AM 42.6678 172.8267 73° East 520 598 38,000  Level FlightAware Transoceanic
07:54AM 42.7096 173.0163 73° East 520 598 38,000  Level FlightAware Transoceanic
07:55AM 42.7511 173.2061 73° East 520 598 38,000  Level FlightAware Transoceanic
07:56AM 42.7803 173.3601 74° East 518 596 38,000  Level FlightAware Transoceanic
07:57AM 42.8204 173.5460 74° East 518 596 38,000  Level FlightAware Transoceanic
07:58AM 42.8602 173.7321 74° East 518 596 38,000  Level FlightAware Transoceanic
07:59AM 42.8997 173.9184 74° East 518 596 38,000  Level FlightAware Transoceanic
08:00AM 42.9389 174.1050 74° East 518 596 38,000  Level FlightAware Transoceanic
08:01AM 42.9778 174.2918 74° East 518 596 38,000  Level FlightAware Transoceanic
08:02AM 43.0164 174.4789 74° East 518 596 38,000  Level FlightAware Transoceanic
08:03AM 43.0547 174.6662 74° East 518 596 38,000 480 Level FlightAware Transoceanic
08:03AM 43.0833 174.8167 75° East 515 593 39,000  Climbing Oakland Oceanic (ODAPS)
08:04AM 43.0927 174.8537 75° East 518 596 38,000 -1,020 Descending FlightAware Transoceanic
08:05AM 43.1304 175.0415 75° East 518 596 38,000  Level FlightAware Transoceanic
08:06AM 43.1678 175.2295 75° East 518 596 38,000  Level FlightAware Transoceanic
08:07AM 43.2048 175.4177 75° East 518 596 38,000  Level FlightAware Transoceanic
08:08AM 43.2416 175.6061 75° East 518 596 38,000  Level FlightAware Transoceanic
08:09AM 43.2780 175.7948 75° East 518 596 38,000 480 Level FlightAware Transoceanic
08:10AM 43.3072 175.9547 75° East 515 593 39,000 480 Climbing FlightAware Transoceanic
08:11AM 43.3434 176.1451 75° East 515 593 39,000  Level FlightAware Transoceanic
08:12AM 43.3792 176.3358 76° East 515 593 39,000  Level FlightAware Transoceanic
08:13AM 43.4148 176.5267 76° East 515 593 39,000  Level FlightAware Transoceanic
08:14AM 43.4501 176.7179 76° East 515 593 39,000  Level FlightAware Transoceanic
08:15AM 43.4850 176.9092 76° East 515 593 39,000  Level FlightAware Transoceanic
08:16AM 43.5196 177.1008 76° East 515 593 39,000  Level FlightAware Transoceanic
08:17AM 43.5539 177.2926 76° East 515 593 39,000  Level FlightAware Transoceanic
08:17AM 43.5833 177.4500 76° East 523 602 39,000  Level Oakland Oceanic (ODAPS)
08:18AM 43.5879 177.4847 76° East 515 593 39,000  Level FlightAware Transoceanic
08:19AM 43.6215 177.6769 76° East 515 593 39,000  Level FlightAware Transoceanic
08:20AM 43.6549 177.8694 77° East 515 593 39,000  Level FlightAware Transoceanic
08:21AM 43.6879 178.0620 77° East 515 593 39,000  Level FlightAware Transoceanic
08:22AM 43.7206 178.2549 77° East 515 593 39,000  Level FlightAware Transoceanic
08:23AM 43.7529 178.4480 77° East 515 593 39,000  Level FlightAware Transoceanic
08:24AM 43.7827 178.6225 77° East 523 602 39,000  Level FlightAware Transoceanic
08:25AM 43.8147 178.8187 77° East 523 602 39,000  Level FlightAware Transoceanic
08:26AM 43.8465 179.0150 77° East 523 602 39,000  Level FlightAware Transoceanic
08:27AM 43.8778 179.2116 78° East 523 602 39,000  Level FlightAware Transoceanic
08:28AM 43.9089 179.4084 78° East 523 602 39,000  Level FlightAware Transoceanic
08:29AM 43.9396 179.6054 78° East 523 602 39,000  Level FlightAware Transoceanic
08:30AM 43.9700 179.8026 78° East 523 602 39,000  Level FlightAware Transoceanic
08:30AM 44.0000 180.0000 79° East 528 608 39,000  Level Oakland Oceanic (ODAPS)
08:31AM 44.0000 -180.0000 79° East 523 602 39,000  Level FlightAware Transoceanic
08:31AM 44.0167 -179.8500 79° East 531 611 39,000  Level Oakland Oceanic (ODAPS)
08:32AM 44.0290 -179.7998 79° East 523 602 39,000  Level FlightAware Transoceanic
08:32AM 44.0333 -179.7333 79° East 524 603 39,000  Level Oakland Oceanic (ODAPS)
08:33AM 44.0577 -179.5994 79° East 523 602 39,000  Level FlightAware Transoceanic
08:34AM 44.0860 -179.3988 79° East 523 602 39,000  Level FlightAware Transoceanic
08:35AM 44.1140 -179.1980 79° East 523 602 39,000  Level FlightAware Transoceanic
08:36AM 44.1417 -178.9970 79° East 523 602 39,000  Level FlightAware Transoceanic
08:37AM 44.1583 -178.8411 79° East 531 611 39,000  Level FlightAware Transoceanic
08:38AM 44.1958 -178.5606 79° East 524 603 39,000  Level FlightAware Transoceanic
08:39AM 44.2217 -178.3645 80° East 524 603 39,000  Level FlightAware Transoceanic
08:40AM 44.2472 -178.1682 80° East 524 603 39,000  Level FlightAware Transoceanic
08:41AM 44.2725 -177.9718 80° East 524 603 39,000  Level FlightAware Transoceanic
08:42AM 44.2974 -177.7752 80° East 524 603 39,000  Level FlightAware Transoceanic
08:43AM 44.3219 -177.5785 80° East 524 603 39,000  Level FlightAware Transoceanic
08:44AM 44.3461 -177.3816 80° East 524 603 39,000  Level FlightAware Transoceanic
08:45AM 44.3700 -177.1845 80° East 524 603 39,000  Level FlightAware Transoceanic
08:45AM 44.3500 -177.3333 80° East 511 588 39,000  Level Oakland Oceanic (ODAPS)
08:45AM 44.3667 -177.2833 80° East 512 589 39,000  Level Oakland Oceanic (ODAPS)
08:46AM 44.3936 -176.9872 81° East 524 603 39,000  Level FlightAware Transoceanic
08:47AM 44.4168 -176.7899 81° East 524 603 39,000  Level FlightAware Transoceanic
08:48AM 44.4396 -176.5923 81° East 524 603 39,000  Level FlightAware Transoceanic
08:49AM 44.4621 -176.3946 81° East 524 603 39,000  Level FlightAware Transoceanic
08:50AM 44.4843 -176.1967 81° East 524 603 39,000  Level FlightAware Transoceanic
08:51AM 44.4837 -176.1872 81° East 511 588 39,000  Level FlightAware Transoceanic
08:52AM 44.5218 -175.9185 81° East 512 589 39,000  Level FlightAware Transoceanic
08:53AM 44.5427 -175.7229 82° East 512 589 39,000  Level FlightAware Transoceanic
08:54AM 44.5632 -175.5272 82° East 512 589 39,000  Level FlightAware Transoceanic
08:55AM 44.5834 -175.3314 82° East 512 589 39,000  Level FlightAware Transoceanic
08:56AM 44.6032 -175.1354 82° East 512 589 39,000  Level FlightAware Transoceanic
08:57AM 44.6227 -174.9393 82° East 512 589 39,000  Level FlightAware Transoceanic
08:58AM 44.6418 -174.7431 82° East 512 589 39,000  Level FlightAware Transoceanic
08:59AM 44.6607 -174.5468 82° East 512 589 39,000  Level FlightAware Transoceanic
08:59AM 44.6333 -174.8167 82° East 530 610 39,000  Level Oakland Oceanic (ODAPS)
09:00AM 44.6792 -174.3503 83° East 512 589 39,000  Level FlightAware Transoceanic
09:01AM 44.6973 -174.1537 83° East 512 589 39,000  Level FlightAware Transoceanic
09:02AM 44.7151 -173.9569 83° East 512 589 39,000  Level FlightAware Transoceanic
09:03AM 44.7326 -173.7601 83° East 512 589 39,000  Level FlightAware Transoceanic
09:04AM 44.7498 -173.5631 83° East 512 589 39,000  Level FlightAware Transoceanic
09:05AM 44.7439 -173.6185 83° East 530 610 39,000  Level FlightAware Transoceanic
09:06AM 44.7612 -173.4184 83° East 530 610 39,000  Level FlightAware Transoceanic
09:07AM 44.7780 -173.2181 83° East 530 610 39,000  Level FlightAware Transoceanic
09:08AM 44.7945 -173.0178 83° East 530 610 39,000  Level FlightAware Transoceanic
09:09AM 44.8107 -172.8173 84° East 530 610 39,000  Level FlightAware Transoceanic
09:10AM 44.8265 -172.6167 84° East 530 610 39,000  Level FlightAware Transoceanic
09:11AM 44.8420 -172.4160 84° East 530 610 39,000  Level FlightAware Transoceanic
09:12AM 44.8571 -172.2152 84° East 530 610 39,000  Level FlightAware Transoceanic
09:13AM 44.8718 -172.0143 84° East 530 610 39,000  Level FlightAware Transoceanic
09:13AM 44.8667 -171.9833 84° East 532 612 39,000  Level Oakland Oceanic (ODAPS)
09:14AM 44.8863 -171.8133 84° East 530 610 39,000  Level FlightAware Transoceanic
09:15AM 44.9003 -171.6122 84° East 530 610 39,000  Level FlightAware Transoceanic
09:16AM 44.9140 -171.4110 85° East 530 610 39,000  Level FlightAware Transoceanic
09:17AM 44.9274 -171.2097 85° East 530 610 39,000  Level FlightAware Transoceanic
09:18AM 44.9403 -171.0083 85° East 530 610 39,000  Level FlightAware Transoceanic
09:19AM 44.9508 -170.7944 85° East 532 612 39,000  Level FlightAware Transoceanic
09:20AM 44.9636 -170.5959 85° East 532 612 39,000  Level FlightAware Transoceanic
09:21AM 44.9761 -170.3974 85° East 532 612 39,000  Level FlightAware Transoceanic
09:22AM 44.9882 -170.1987 85° East 532 612 39,000  Level FlightAware Transoceanic
09:23AM 45.0000 -170.0000 94° East 532 612 39,000  Level FlightAware Transoceanic
09:23AM 45.0000 -170.0000 94° East 540 621 39,000  Level Oakland Oceanic (ODAPS)
09:24AM 44.9882 -169.7886 95° East 532 612 39,000  Level FlightAware Transoceanic
09:25AM 44.9759 -169.5773 95° East 532 612 39,000  Level FlightAware Transoceanic
09:26AM 44.9633 -169.3661 95° East 532 612 39,000  Level FlightAware Transoceanic
09:27AM 44.9503 -169.1550 95° East 532 612 39,000  Level FlightAware Transoceanic
09:27AM 44.9500 -169.1500 95° East 531 611 39,000  Level Oakland Oceanic (ODAPS)
09:28AM 44.9369 -168.9440 95° East 532 612 39,000  Level FlightAware Transoceanic
09:29AM 44.9232 -168.7331 95° East 540 621 39,000  Level FlightAware Transoceanic
09:30AM 44.9090 -168.5223 95° East 540 621 39,000  Level FlightAware Transoceanic
09:31AM 44.8944 -168.3116 96° East 540 621 39,000  Level FlightAware Transoceanic
09:32AM 44.8795 -168.1010 96° East 540 621 39,000  Level FlightAware Transoceanic
09:33AM 44.8659 -167.9143 96° East 531 611 39,000  Level FlightAware Transoceanic
09:34AM 44.8506 -167.7087 96° East 531 611 39,000  Level FlightAware Transoceanic
09:35AM 44.8349 -167.5032 96° East 531 611 39,000  Level FlightAware Transoceanic
09:36AM 44.8189 -167.2978 96° East 531 611 39,000  Level FlightAware Transoceanic
09:37AM 44.8024 -167.0926 97° East 531 611 39,000  Level FlightAware Transoceanic
09:38AM 44.7857 -166.8875 97° East 531 611 39,000  Level FlightAware Transoceanic
09:39AM 44.7685 -166.6824 97° East 531 611 39,000  Level FlightAware Transoceanic
09:40AM 44.7510 -166.4775 97° East 531 611 39,000  Level FlightAware Transoceanic
09:41AM 44.7331 -166.2728 97° East 531 611 39,000  Level FlightAware Transoceanic
09:41AM 44.7500 -166.3667 97° East 523 602 39,000  Level Oakland Oceanic (ODAPS)
09:42AM 44.7149 -166.0681 97° East 531 611 39,000  Level FlightAware Transoceanic
09:43AM 44.6963 -165.8636 97° East 531 611 39,000  Level FlightAware Transoceanic
09:44AM 44.6773 -165.6593 98° East 531 611 39,000  Level FlightAware Transoceanic
09:45AM 44.6579 -165.4550 98° East 531 611 39,000  Level FlightAware Transoceanic
09:46AM 44.6382 -165.2509 98° East 531 611 39,000  Level FlightAware Transoceanic
09:47AM 44.6365 -165.1610 98° East 523 602 39,000  Level FlightAware Transoceanic
09:48AM 44.6163 -164.9606 98° East 523 602 39,000  Level FlightAware Transoceanic
09:49AM 44.5958 -164.7602 98° East 523 602 39,000  Level FlightAware Transoceanic
09:50AM 44.5750 -164.5600 98° East 523 602 39,000  Level FlightAware Transoceanic
09:51AM 44.5537 -164.3600 99° East 523 602 39,000  Level FlightAware Transoceanic
09:52AM 44.5322 -164.1601 99° East 523 602 39,000  Level FlightAware Transoceanic
09:53AM 44.5103 -163.9604 99° East 523 602 39,000  Level FlightAware Transoceanic
09:54AM 44.4880 -163.7608 99° East 523 602 39,000  Level FlightAware Transoceanic
09:54AM 44.4667 -163.5667 99° East 534 615 39,000  Level Oakland Oceanic (ODAPS)
09:55AM 44.4655 -163.5613 99° East 523 602 39,000  Level FlightAware Transoceanic
09:56AM 44.4425 -163.3620 99° East 523 602 39,000  Level FlightAware Transoceanic
09:57AM 44.4192 -163.1629 99° East 523 602 39,000  Level FlightAware Transoceanic
09:58AM 44.3956 -162.9640 100° East 523 602 39,000  Level FlightAware Transoceanic
09:59AM 44.3716 -162.7652 100° East 523 602 39,000  Level FlightAware Transoceanic
10:00AM 44.3473 -162.5665 100° East 523 602 39,000  Level FlightAware Transoceanic
10:01AM 44.3147 -162.3015 100° East 534 615 39,000  Level FlightAware Transoceanic
10:02AM 44.2880 -162.0912 100° East 534 615 39,000  Level FlightAware Transoceanic
10:03AM 44.2609 -161.8812 100° East 534 615 39,000  Level FlightAware Transoceanic
10:04AM 44.2334 -161.6714 100° East 534 615 39,000  Level FlightAware Transoceanic
10:05AM 44.2056 -161.4617 101° East 534 615 39,000  Level FlightAware Transoceanic
10:06AM 44.1774 -161.2523 101° East 534 615 39,000  Level FlightAware Transoceanic
10:07AM 44.1488 -161.0431 101° East 534 615 39,000  Level FlightAware Transoceanic
10:08AM 44.1198 -160.8340 101° East 534 615 39,000  Level FlightAware Transoceanic
10:08AM 44.1000 -160.7167 101° East 543 625 39,000  Level Oakland Oceanic (ODAPS)
10:09AM 44.0904 -160.6252 101° East 534 615 39,000  Level FlightAware Transoceanic
10:10AM 44.0606 -160.4166 101° East 534 615 39,000  Level FlightAware Transoceanic
10:11AM 44.0305 -160.2082 101° East 534 615 39,000  Level FlightAware Transoceanic
10:12AM 44.0000 -160.0000 87° East 534 615 39,000  Level FlightAware Transoceanic
10:12AM 44.0000 -160.0000 87° East 537 618 39,000  Level Oakland Oceanic (ODAPS)
10:13AM 44.0087 -159.7964 87° East 534 615 39,000  Level FlightAware Transoceanic
10:14AM 44.0171 -159.5927 87° East 534 615 39,000  Level FlightAware Transoceanic
10:15AM 44.0251 -159.3890 87° East 543 625 39,000  Level FlightAware Transoceanic
10:16AM 44.0327 -159.1852 87° East 543 625 39,000  Level FlightAware Transoceanic
10:17AM 44.0400 -158.9814 87° East 543 625 39,000  Level FlightAware Transoceanic
10:18AM 44.0477 -158.7520 87° East 537 618 39,000  Level FlightAware Transoceanic
10:19AM 44.0544 -158.5438 88° East 537 618 39,000  Level FlightAware Transoceanic
10:20AM 44.0606 -158.3356 88° East 537 618 39,000  Level FlightAware Transoceanic
10:21AM 44.0665 -158.1273 88° East 537 618 39,000  Level FlightAware Transoceanic
10:22AM 44.0720 -157.9190 88° East 537 618 39,000  Level FlightAware Transoceanic
10:22AM 44.0667 -157.8333 88° East 551 634 39,000  Level Oakland Oceanic (ODAPS)
10:23AM 44.0771 -157.7107 88° East 537 618 39,000  Level FlightAware Transoceanic
10:24AM 44.0818 -157.5023 88° East 537 618 39,000  Level FlightAware Transoceanic
10:25AM 44.0862 -157.2939 88° East 537 618 39,000  Level FlightAware Transoceanic
10:26AM 44.0902 -157.0854 89° East 537 618 39,000  Level FlightAware Transoceanic
10:27AM 44.0938 -156.8770 89° East 537 618 39,000  Level FlightAware Transoceanic
10:28AM 44.0923 -156.5629 89° East 551 634 39,000  Level FlightAware Transoceanic
10:29AM 44.0951 -156.3511 89° East 551 634 39,000  Level FlightAware Transoceanic
10:30AM 44.0976 -156.1393 89° East 551 634 39,000  Level FlightAware Transoceanic
10:31AM 44.0998 -155.9274 89° East 551 634 39,000  Level FlightAware Transoceanic
10:32AM 44.1015 -155.7155 89° East 551 634 39,000  Level FlightAware Transoceanic
10:33AM 44.1028 -155.5037 90° East 551 634 39,000  Level FlightAware Transoceanic
10:34AM 44.1037 -155.2918 90° East 551 634 39,000  Level FlightAware Transoceanic
10:35AM 44.1043 -155.0799 90° East 551 634 39,000  Level FlightAware Transoceanic
10:36AM 44.1044 -154.8680 90° East 551 634 39,000  Level FlightAware Transoceanic
10:36AM 44.1167 -154.8833 90° East 547 629 39,000  Level Oakland Oceanic (ODAPS)
10:37AM 44.1042 -154.6561 90° East 551 634 39,000  Level FlightAware Transoceanic
10:38AM 44.1036 -154.4442 90° East 551 634 39,000  Level FlightAware Transoceanic
10:39AM 44.1026 -154.2323 90° East 551 634 39,000  Level FlightAware Transoceanic
10:40AM 44.1011 -154.0204 91° East 551 634 39,000  Level FlightAware Transoceanic
10:41AM 44.0993 -153.8085 91° East 551 634 39,000  Level FlightAware Transoceanic
10:42AM 44.1070 -153.6610 91° East 547 629 39,000  Level FlightAware Transoceanic
10:43AM 44.1041 -153.4573 91° East 547 629 39,000  Level FlightAware Transoceanic
10:44AM 44.1009 -153.2536 91° East 547 629 39,000  Level FlightAware Transoceanic
10:45AM 44.0973 -153.0500 91° East 547 629 39,000  Level FlightAware Transoceanic
10:46AM 44.0933 -152.8464 92° East 547 629 39,000  Level FlightAware Transoceanic
10:47AM 44.0890 -152.6428 92° East 547 629 39,000  Level FlightAware Transoceanic
10:48AM 44.0843 -152.4393 92° East 547 629 39,000  Level FlightAware Transoceanic
10:49AM 44.0793 -152.2357 92° East 547 629 39,000  Level FlightAware Transoceanic
10:50AM 44.0739 -152.0323 92° East 547 629 39,000  Level FlightAware Transoceanic
10:50AM 44.0667 -151.9833 92° East 541 623 39,000  Level Oakland Oceanic (ODAPS)
10:51AM 44.0681 -151.8288 92° East 547 629 39,000  Level FlightAware Transoceanic
10:52AM 44.0620 -151.6254 92° East 547 629 39,000  Level FlightAware Transoceanic
10:53AM 44.0555 -151.4221 93° East 547 629 39,000  Level FlightAware Transoceanic
10:54AM 44.0487 -151.2188 93° East 547 629 39,000  Level FlightAware Transoceanic
10:55AM 44.0415 -151.0155 93° East 547 629 39,000  Level FlightAware Transoceanic
10:56AM 44.0308 -150.7928 93° East 541 623 39,000  Level FlightAware Transoceanic
10:57AM 44.0236 -150.5945 93° East 541 623 39,000  Level FlightAware Transoceanic
10:58AM 44.0161 -150.3963 93° East 541 623 39,000  Level FlightAware Transoceanic
10:59AM 44.0082 -150.1981 93° East 541 623 39,000  Level FlightAware Transoceanic
11:00AM 44.0000 -150.0000 102° East 541 623 39,000  Level FlightAware Transoceanic
11:00AM 44.0000 -150.0000 102° East 516 594 39,000  Level Oakland Oceanic (ODAPS)
11:01AM 43.9711 -149.8092 102° East 541 623 39,000  Level FlightAware Transoceanic
11:02AM 43.9418 -149.6186 102° East 541 623 39,000  Level FlightAware Transoceanic
11:03AM 43.9122 -149.4281 102° East 541 623 39,000  Level FlightAware Transoceanic
11:04AM 43.8823 -149.2379 102° East 541 623 39,000  Level FlightAware Transoceanic
11:04AM 43.8667 -149.1667 102° East 507 583 39,000  Level Oakland Oceanic (ODAPS)
11:05AM 43.8521 -149.0479 103° East 541 623 39,000  Level FlightAware Transoceanic
11:06AM 43.8181 -148.8365 103° East 516 594 39,000  Level FlightAware Transoceanic
11:07AM 43.7866 -148.6433 103° East 516 594 39,000  Level FlightAware Transoceanic
11:08AM 43.7548 -148.4503 103° East 516 594 39,000  Level FlightAware Transoceanic
11:09AM 43.7227 -148.2575 103° East 516 594 39,000  Level FlightAware Transoceanic
11:10AM 43.6819 -148.0383 103° East 507 583 39,000  Level FlightAware Transoceanic
11:11AM 43.6501 -147.8509 103° East 507 583 39,000  Level FlightAware Transoceanic
11:12AM 43.6179 -147.6638 103° East 507 583 39,000  Level FlightAware Transoceanic
11:13AM 43.5854 -147.4768 104° East 507 583 39,000  Level FlightAware Transoceanic
11:14AM 43.5526 -147.2900 104° East 507 583 39,000  Level FlightAware Transoceanic
11:15AM 43.5195 -147.1035 104° East 507 583 39,000  Level FlightAware Transoceanic
11:16AM 43.4861 -146.9171 104° East 507 583 39,000  Level FlightAware Transoceanic
11:17AM 43.4525 -146.7309 104° East 507 583 39,000  Level FlightAware Transoceanic
11:18AM 43.4185 -146.5450 104° East 507 583 39,000 900 Level FlightAware Transoceanic
11:18AM 43.4167 -146.5500 104° East 500 575 40,000  Climbing Oakland Oceanic (ODAPS)
11:19AM 43.3842 -146.3593 104° East 507 583 39,000 -540 Descending FlightAware Transoceanic
11:20AM 43.3496 -146.1737 104° East 507 583 39,000  Level FlightAware Transoceanic
11:21AM 43.3147 -145.9884 105° East 507 583 39,000  Level FlightAware Transoceanic
11:22AM 43.2795 -145.8033 105° East 507 583 39,000  Level FlightAware Transoceanic
11:23AM 43.2440 -145.6184 105° East 507 583 39,000 480 Level FlightAware Transoceanic
11:24AM 43.2068 -145.4379 105° East 500 575 40,000 480 Climbing FlightAware Transoceanic
11:25AM 43.1707 -145.2534 105° East 500 575 40,000  Level FlightAware Transoceanic
11:26AM 43.1344 -145.0690 105° East 500 575 40,000  Level FlightAware Transoceanic
11:27AM 43.0978 -144.8849 105° East 500 575 40,000  Level FlightAware Transoceanic
11:28AM 43.0609 -144.7009 105° East 500 575 40,000  Level FlightAware Transoceanic
11:29AM 43.0237 -144.5172 106° East 500 575 40,000  Level FlightAware Transoceanic
11:30AM 42.9861 -144.3337 106° East 500 575 40,000  Level FlightAware Transoceanic
11:31AM 42.9483 -144.1505 106° East 500 575 40,000  Level FlightAware Transoceanic
11:31AM 42.9333 -144.0167 106° East 499 574 40,000  Level Oakland Oceanic (ODAPS)
11:32AM 42.9103 -143.9674 106° East 500 575 40,000  Level FlightAware Transoceanic
11:33AM 42.8719 -143.7846 106° East 500 575 40,000  Level FlightAware Transoceanic
11:34AM 42.8332 -143.6021 106° East 500 575 40,000  Level FlightAware Transoceanic
11:35AM 42.7943 -143.4197 106° East 500 575 40,000  Level FlightAware Transoceanic
11:36AM 42.7550 -143.2376 106° East 500 575 40,000  Level FlightAware Transoceanic
11:37AM 42.7155 -143.0557 107° East 500 575 40,000  Level FlightAware Transoceanic
11:38AM 42.6928 -142.9094 107° East 499 574 40,000  Level FlightAware Transoceanic
11:39AM 42.6516 -142.7257 107° East 499 574 40,000  Level FlightAware Transoceanic
11:40AM 42.6102 -142.5423 107° East 499 574 40,000  Level FlightAware Transoceanic
11:41AM 42.5685 -142.3590 107° East 499 574 40,000  Level FlightAware Transoceanic
11:42AM 42.5265 -142.1761 107° East 499 574 40,000  Level FlightAware Transoceanic
11:43AM 42.4842 -141.9934 107° East 499 574 40,000  Level FlightAware Transoceanic
11:44AM 42.4416 -141.8109 108° East 499 574 40,000  Level FlightAware Transoceanic
11:45AM 42.3987 -141.6287 108° East 499 574 40,000  Level FlightAware Transoceanic
11:45AM 42.3667 -141.5333 107° East 499 574 40,000  Level Oakland Oceanic (ODAPS)
11:46AM 42.3556 -141.4467 108° East 499 574 40,000  Level FlightAware Transoceanic
11:47AM 42.3121 -141.2650 108° East 499 574 40,000  Level FlightAware Transoceanic
11:48AM 42.2684 -141.0835 108° East 499 574 40,000  Level FlightAware Transoceanic
11:49AM 42.2244 -140.9023 108° East 499 574 40,000  Level FlightAware Transoceanic
11:50AM 42.1801 -140.7213 108° East 499 574 40,000  Level FlightAware Transoceanic
11:51AM 42.1355 -140.5406 108° East 499 574 40,000  Level FlightAware Transoceanic
11:52AM 42.0936 -140.3817 108° East 499 574 40,000  Level FlightAware Transoceanic
11:53AM 42.0470 -140.1907 108° East 499 574 40,000  Level FlightAware Transoceanic
11:54AM 42.0000 -140.0000 108° East 499 574 40,000 600 Level FlightAware Transoceanic
11:54AM 42.0000 -140.0000 108° East 495 570 41,000  Climbing Oakland Oceanic (ODAPS)
11:55AM 41.9580 -139.8290 108° East 499 574 40,000 -780 Descending FlightAware Transoceanic
11:56AM 41.9157 -139.6582 108° East 499 574 40,000  Level FlightAware Transoceanic
11:57AM 41.8732 -139.4876 109° East 499 574 40,000  Level FlightAware Transoceanic
11:58AM 41.8305 -139.3172 109° East 499 574 40,000  Level FlightAware Transoceanic
11:59AM 41.7874 -139.1471 109° East 499 574 40,000 540 Level FlightAware Transoceanic
11:59AM 41.7833 -139.1167 109° East 492 566 41,000 960 Climbing Oakland Oceanic (ODAPS)
12:00PM 41.7398 -138.9602 109° East 495 570 41,000  Level FlightAware Transoceanic
12:01PM 41.6956 -138.7878 109° East 495 570 41,000  Level FlightAware Transoceanic
12:02PM 41.6510 -138.6155 109° East 495 570 41,000  Level FlightAware Transoceanic
12:03PM 41.6063 -138.4435 109° East 495 570 41,000  Level FlightAware Transoceanic
12:04PM 41.5612 -138.2718 109° East 495 570 41,000  Level FlightAware Transoceanic
12:05PM 41.5565 -138.2412 109° East 492 566 41,000  Level FlightAware Transoceanic
12:06PM 41.5103 -138.0668 110° East 492 566 41,000  Level FlightAware Transoceanic
12:07PM 41.4639 -137.8927 110° East 492 566 41,000  Level FlightAware Transoceanic
12:08PM 41.4172 -137.7189 110° East 492 566 41,000  Level FlightAware Transoceanic
12:09PM 41.3702 -137.5453 110° East 492 566 41,000  Level FlightAware Transoceanic
12:10PM 41.3230 -137.3719 110° East 492 566 41,000  Level FlightAware Transoceanic
12:11PM 41.2755 -137.1988 110° East 492 566 41,000  Level FlightAware Transoceanic
12:12PM 41.2278 -137.0260 110° East 492 566 41,000  Level FlightAware Transoceanic
12:13PM 41.1798 -136.8534 110° East 492 566 41,000  Level FlightAware Transoceanic
12:13PM 41.1500 -136.7667 110° East 488 562 41,000  Level Oakland Oceanic (ODAPS)
12:14PM 41.1315 -136.6810 110° East 492 566 41,000  Level FlightAware Transoceanic
12:15PM 41.0830 -136.5090 111° Southeast 492 566 41,000  Level FlightAware Transoceanic
12:16PM 41.0343 -136.3371 111° Southeast 492 566 41,000  Level FlightAware Transoceanic
12:17PM 40.9852 -136.1656 111° Southeast 492 566 41,000  Level FlightAware Transoceanic
12:18PM 40.9360 -135.9942 111° Southeast 492 566 41,000  Level FlightAware Transoceanic
12:19PM 40.8865 -135.8232 111° Southeast 492 566 41,000  Level FlightAware Transoceanic
12:20PM 40.8194 -135.6093 111° Southeast 488 562 41,000  Level FlightAware Transoceanic
12:21PM 40.7713 -135.4450 111° Southeast 488 562 41,000  Level FlightAware Transoceanic
12:22PM 40.7229 -135.2808 111° Southeast 488 562 41,000  Level FlightAware Transoceanic
12:23PM 40.6743 -135.1169 111° Southeast 488 562 41,000  Level FlightAware Transoceanic
12:24PM 40.6254 -134.9532 112° Southeast 488 562 41,000  Level FlightAware Transoceanic
12:25PM 40.5763 -134.7898 112° Southeast 488 562 41,000  Level FlightAware Transoceanic
12:26PM 40.5270 -134.6266 112° Southeast 488 562 41,000  Level FlightAware Transoceanic
12:27PM 40.4774 -134.4637 112° Southeast 488 562 41,000  Level FlightAware Transoceanic
12:27PM 40.4833 -134.4833 112° Southeast 487 560 41,000  Level Oakland Oceanic (ODAPS)
12:28PM 40.4277 -134.3010 112° Southeast 488 562 41,000  Level FlightAware Transoceanic
12:29PM 40.3777 -134.1385 112° Southeast 488 562 41,000  Level FlightAware Transoceanic
12:30PM 40.3274 -133.9763 112° Southeast 488 562 41,000  Level FlightAware Transoceanic
12:31PM 40.2770 -133.8143 112° Southeast 488 562 41,000  Level FlightAware Transoceanic
12:32PM 40.2263 -133.6526 112° Southeast 488 562 41,000  Level FlightAware Transoceanic
12:33PM 40.1801 -133.5064 112° Southeast 487 560 41,000  Level FlightAware Transoceanic
12:34PM 40.1288 -133.3444 113° Southeast 487 560 41,000  Level FlightAware Transoceanic
12:35PM 40.0773 -133.1827 113° Southeast 487 560 41,000  Level FlightAware Transoceanic
12:36PM 40.0255 -133.0212 113° Southeast 487 560 41,000  Level FlightAware Transoceanic
12:37PM 39.9735 -132.8600 113° Southeast 487 560 41,000  Level FlightAware Transoceanic
12:38PM 39.9212 -132.6990 113° Southeast 487 560 41,000  Level FlightAware Transoceanic
12:39PM 39.8688 -132.5383 113° Southeast 487 560 41,000  Level FlightAware Transoceanic
12:40PM 39.8161 -132.3778 113° Southeast 487 560 41,000  Level FlightAware Transoceanic
12:41PM 39.7632 -132.2175 113° Southeast 487 560 41,000  Level FlightAware Transoceanic
12:41PM 39.7667 -132.2167 113° Southeast 490 564 41,000  Level Oakland Oceanic (ODAPS)
12:42PM 39.7101 -132.0575 113° Southeast 487 560 41,000  Level FlightAware Transoceanic
12:43PM 39.6568 -131.8978 114° Southeast 487 560 41,000  Level FlightAware Transoceanic
12:44PM 39.6032 -131.7383 114° Southeast 487 560 41,000  Level FlightAware Transoceanic
12:45PM 39.5495 -131.5790 114° Southeast 487 560 41,000  Level FlightAware Transoceanic
12:46PM 39.4955 -131.4200 114° Southeast 487 560 41,000  Level FlightAware Transoceanic
12:47PM 39.4432 -131.2607 114° Southeast 490 564 41,000  Level FlightAware Transoceanic
12:48PM 39.3886 -131.1022 114° Southeast 490 564 41,000  Level FlightAware Transoceanic
12:49PM 39.3337 -130.9440 114° Southeast 490 564 41,000  Level FlightAware Transoceanic
12:50PM 39.2786 -130.7861 114° Southeast 490 564 41,000  Level FlightAware Transoceanic
12:51PM 39.2233 -130.6284 114° Southeast 490 564 41,000  Level FlightAware Transoceanic
12:52PM 39.1678 -130.4709 115° Southeast 490 564 41,000  Level FlightAware Transoceanic
12:53PM 39.1121 -130.3137 115° Southeast 490 564 41,000  Level FlightAware Transoceanic
12:54PM 39.0561 -130.1567 115° Southeast 490 564 41,000  Level FlightAware Transoceanic
12:55PM 39.0000 -130.0000 102° East 490 564 41,000  Level FlightAware Transoceanic
12:55PM 39.0000 -130.0000 102° East 494 568 41,000  Level Oakland Oceanic (ODAPS)
12:56PM 38.9724 -129.8322 102° East 490 564 41,000  Level FlightAware Transoceanic
12:57PM 38.9445 -129.6645 102° East 490 564 41,000  Level FlightAware Transoceanic
12:58PM 38.9165 -129.4969 102° East 490 564 41,000  Level FlightAware Transoceanic
12:59PM 38.8881 -129.3295 102° East 490 564 41,000  Level FlightAware Transoceanic
01:00PM 38.8596 -129.1622 102° East 490 564 41,000  Level FlightAware Transoceanic
01:01PM 38.8205 -128.9361 103° East 494 568 41,000  Level FlightAware Transoceanic
01:02PM 38.7897 -128.7593 103° East 494 568 41,000  Level FlightAware Transoceanic
01:03PM 38.7586 -128.5827 103° East 494 568 41,000  Level FlightAware Transoceanic
01:04PM 38.7272 -128.4062 103° East 494 568 41,000  Level FlightAware Transoceanic
01:05PM 38.6955 -128.2298 103° East 494 568 41,000  Level FlightAware Transoceanic
01:06PM 38.6636 -128.0537 103° East 494 568 41,000  Level FlightAware Transoceanic
01:07PM 38.6315 -127.8777 103° East 494 568 41,000  Level FlightAware Transoceanic
01:08PM 38.5990 -127.7018 103° East 494 568 41,000  Level FlightAware Transoceanic
01:08PM 38.5833 -127.6333 103° East 489 563 41,000  Level Oakland Oceanic (ODAPS)
01:09PM 38.5663 -127.5261 103° East 494 568 41,000  Level FlightAware Transoceanic
01:09PM 38.5608 -127.4953 111° Southeast 489 563 41,000  Level Oakland Center
01:10PM 38.5334 -127.3506 104° East 494 568 41,000 -120 Level FlightAware Transoceanic
01:10PM 38.5286 -127.3272 104° East 490 564 40,900  Descending Oakland Center
01:11PM 38.5001 -127.1752 104° East 494 568 41,000 60 Climbing FlightAware Transoceanic
01:12PM 38.4667 -127.0000 111° Southeast 494 568 41,000  Level FlightAware Transoceanic
01:13PM 38.4209 -126.8491 111° Southeast 494 568 41,000  Level FlightAware Transoceanic
01:14PM 38.3749 -126.6985 111° Southeast 494 568 41,000  Level FlightAware Transoceanic
01:15PM 38.3646 -126.6650 111° Southeast 489 563 41,000  Level FlightAware Transoceanic
01:16PM 38.2270 -126.3200 104° East 493 567 41,000  Level FlightAware
01:17PM 38.1890 -126.2180 115° Southeast 492 566 41,000  Level FlightAware
01:18PM 38.1580 -126.1330 115° Southeast 493 567 41,000  Level FlightAware
01:18PM 38.1250 -126.0440 115° Southeast 493 567 41,000  Level FlightAware
01:19PM 38.0810 -125.9280 116° Southeast 493 567 41,000  Level FlightAware
01:19PM 38.0580 -125.8670 116° Southeast 493 567 41,000  Level FlightAware
01:19PM 38.0520 -125.8510 115° Southeast 493 567 41,000  Level FlightAware
01:21PM 37.9560 -125.5950 115° Southeast 491 565 41,000  Level FlightAware
01:22PM 37.9020 -125.4530 116° Southeast 488 562 41,000  Level FlightAware
01:23PM 37.8690 -125.3650 115° Southeast 488 562 41,000  Level FlightAware
01:23PM 37.8360 -125.2790 116° Southeast 487 560 41,000  Level FlightAware
01:24PM 37.7730 -125.1130 116° Southeast 485 558 41,000  Level FlightAware
01:25PM 37.7370 -125.0190 116° Southeast 487 560 41,000  Level FlightAware
01:25PM 37.7080 -124.9420 115° Southeast 489 563 41,000  Level FlightAware
01:26PM 37.6720 -124.8500 116° Southeast 489 563 41,000  Level FlightAware
01:27PM 37.6400 -124.7650 115° Southeast 490 564 41,000  Level FlightAware
01:27PM 37.6040 -124.6710 116° Southeast 490 564 41,000  Level FlightAware
01:28PM 37.5660 -124.5740 116° Southeast 490 564 41,000  Level FlightAware
01:28PM 37.5360 -124.4960 116° Southeast 490 564 41,000  Level FlightAware
01:29PM 37.4980 -124.3990 116° Southeast 490 564 41,000  Level FlightAware
01:29PM 37.4640 -124.3140 117° Southeast 490 564 41,000  Level FlightAware
01:30PM 37.4310 -124.2280 116° Southeast 490 564 41,000  Level FlightAware
01:31PM 37.3940 -124.1340 116° Southeast 489 563 41,000  Level FlightAware
01:31PM 37.3700 -124.0730 116° Southeast 490 564 41,000  Level FlightAware
01:32PM 37.3230 -123.9560 117° Southeast 487 560 41,000  Level FlightAware
01:32PM 37.2900 -123.8710 116° Southeast 485 558 41,000  Level FlightAware
01:33PM 37.2520 -123.7760 117° Southeast 486 559 41,000  Level FlightAware
01:34PM 37.2170 -123.6880 117° Southeast 487 560 41,000  Level FlightAware
01:34PM 37.1810 -123.5980 117° Southeast 485 558 41,000  Level FlightAware
01:35PM 37.1553 -123.5340 117° Southeast 485 558 41,000  Level FlightAware ADS-B
01:35PM 37.1110 -123.4230 117° Southeast 487 560 41,000  Level FlightAware
01:36PM 37.0800 -123.3470 117° Southeast 487 560 41,000  Level FlightAware
01:36PM 37.0551 -123.2850 117° Southeast 487 560 41,000  Level FlightAware ADS-B
01:37PM 37.0080 -123.1700 117° Southeast 490 564 41,000  Level FlightAware
01:37PM 36.9868 -123.1170 117° Southeast 487 560 41,000  Level FlightAware ADS-B
01:38PM 36.9492 -123.0250 117° Southeast 492 566 41,000  Level FlightAware ADS-B
01:39PM 36.8950 -122.8920 117° Southeast 492 566 41,000  Level FlightAware
01:39PM 36.8640 -122.8160 117° Southeast 489 563 41,000  Level FlightAware
01:39PM 36.8570 -122.8000 119° Southeast 488 562 41,000  Level FlightAware
01:41PM 36.7680 -122.5820 117° Southeast 488 562 41,000  Level FlightAware
01:42PM 36.7260 -122.4830 118° Southeast 481 554 41,000  Level FlightAware
01:42PM 36.6730 -122.3530 117° Southeast 479 551 41,000  Level FlightAware
01:43PM 36.6350 -122.2630 118° Southeast 474 545 41,000  Level FlightAware
01:43PM 36.6148 -122.2150 118° Southeast 467 537 41,000  Level FlightAware ADS-B
01:44PM 36.5610 -122.0870 118° Southeast 456 525 41,000  Level FlightAware
01:45PM 36.5250 -122.0000 117° Southeast 455 524 41,000  Level FlightAware
01:46PM 36.4890 -121.9160 118° Southeast 455 524 41,000  Level FlightAware
01:46PM 36.4550 -121.8360 118° Southeast 457 526 41,000  Level FlightAware
01:47PM 36.4240 -121.7620 117° Southeast 459 528 41,000  Level FlightAware
01:47PM 36.3850 -121.6710 118° Southeast 461 531 41,000  Level FlightAware
01:48PM 36.3540 -121.5980 118° Southeast 462 532 41,000  Level FlightAware
01:48PM 36.3190 -121.5160 118° Southeast 461 531 41,000  Level FlightAware
01:49PM 36.2790 -121.4220 118° Southeast 461 531 41,000  Level FlightAware
01:50PM 36.2470 -121.3460 118° Southeast 461 531 41,000  Level FlightAware
01:50PM 36.2130 -121.2680 118° Southeast 462 532 41,000  Level FlightAware
01:51PM 36.1883 -121.2110 118° Southeast 462 532 41,000  Level FlightAware ADS-B
01:51PM 36.1339 -121.0850 118° Southeast 458 527 41,000  Level FlightAware ADS-B
01:52PM 36.1035 -121.0150 118° Southeast 457 526 41,000  Level FlightAware ADS-B
01:53PM 36.0650 -120.9260 118° Southeast 456 525 41,000  Level FlightAware
01:53PM 36.0310 -120.8490 119° Southeast 455 524 41,000  Level FlightAware
01:54PM 35.9990 -120.7750 118° Southeast 455 524 41,000  Level FlightAware
01:54PM 35.9610 -120.6890 119° Southeast 455 524 41,000  Level FlightAware
01:55PM 35.9250 -120.6060 118° Southeast 455 524 41,000  Level FlightAware
01:56PM 35.8900 -120.5260 118° Southeast 455 524 41,000  Level FlightAware
01:56PM 35.8530 -120.4420 119° Southeast 456 525 41,000  Level FlightAware
01:57PM 35.8230 -120.3740 119° Southeast 455 524 41,000  Level FlightAware
01:57PM 35.7900 -120.2990 118° Southeast 455 524 41,000  Level FlightAware
01:58PM 35.7510 -120.2120 119° Southeast 455 524 41,000  Level FlightAware
01:58PM 35.7140 -120.1280 118° Southeast 456 525 41,000  Level FlightAware
01:59PM 35.6780 -120.0470 119° Southeast 456 525 41,000 -120 Level FlightAware
01:59PM 35.6510 -119.9980 124° Southeast 448 516 40,900 -1,140 Descending FlightAware
02:02PM 35.4710 -119.8300 143° Southeast 446 513 38,300 -1,380 Descending FlightAware
02:02PM 35.4000 -119.7680 145° Southeast 449 517 37,200 -1,140 Descending FlightAware
02:03PM 35.3280 -119.7070 145° Southeast 451 519 37,000 -180 Descending FlightAware
02:03PM 35.2680 -119.6540 144° Southeast 451 519 37,000 -360 Level FlightAware
02:04PM 35.2090 -119.6040 145° Southeast 452 520 36,600 -1,680 Descending FlightAware
02:04PM 35.1910 -119.5890 146° Southeast 462 532 35,800 -4,080 Descending FlightAware
02:05PM 35.0930 -119.5050 145° Southeast 493 567 32,200 -3,540 Descending FlightAware
02:06PM 35.0260 -119.4480 145° Southeast 495 570 30,500 -2,100 Descending FlightAware
02:06PM 34.9480 -119.3790 144° Southeast 495 570 29,400 -840 Descending FlightAware
02:07PM 34.8880 -119.3260 144° Southeast 495 570 29,400 -4,020 Level FlightAware
02:07PM 34.8150 -119.2680 147° Southeast 479 551 24,800 -3,540 Descending FlightAware
02:08PM 34.7430 -119.2060 145° Southeast 479 551 24,800  Level FlightAware
02:09PM 34.6690 -119.1430 145° Southeast 479 551 24,800  Level FlightAware
02:10PM 34.6120 -119.0940 145° Southeast 479 551 24,800  Level FlightAware
02:10PM 34.5590 -119.0500 146° Southeast 479 551 24,800  Level FlightAware
02:11PM 34.4990 -118.9980 144° Southeast 479 551 24,800 -5,040 Level FlightAware
02:12PM 34.4160 -118.9310 146° Southeast 347 399 16,500 -4,860 Descending FlightAware
02:13PM 34.3520 -118.8780 146° Southeast 331 381 15,700 -540 Descending FlightAware
02:13PM 34.3140 -118.8450 144° Southeast 331 381 15,700 -2,280 Level FlightAware
02:13PM 34.2870 -118.8560 199° South 302 348 14,000 -3,420 Descending FlightAware
02:14PM 34.2400 -118.8380 162° South 302 348 13,200 -1,320 Descending FlightAware
02:15PM 34.1870 -118.8190 163° South 298 343 12,300 -1,140 Descending FlightAware
02:16PM 34.1210 -118.7950 163° South 291 335 11,500 -1,020 Descending FlightAware
02:16PM 34.0810 -118.7800 163° South 287 330 11,000 -900 Descending FlightAware
02:16PM 34.0600 -118.7690 157° South 277 319 10,800 -660 Descending FlightAware
02:17PM 34.0490 -118.7570 138° Southeast 274 315 10,700 -720 Descending FlightAware
02:17PM 34.0340 -118.7140 113° Southeast 268 308 10,300 -780 Descending FlightAware
02:18PM 34.0310 -118.6760 95° East 260 299 10,000 -540 Descending FlightAware
02:18PM 34.0280 -118.6500 98° East 246 283 9,900 -180 Descending FlightAware
02:18PM 34.0270 -118.6320 94° East 230 265 9,900 -420 Level FlightAware
02:18PM 34.0240 -118.6070 98° East 220 253 9,700 -900 Descending FlightAware
02:19PM 34.0220 -118.5780 95° East 220 253 9,300 -1,020 Descending FlightAware
02:19PM 34.0200 -118.5580 97° East 219 252 9,000 -1,080 Descending FlightAware
02:19PM 34.0170 -118.5300 97° East 218 251 8,600 -540 Descending FlightAware
02:21PM 34.0120 -118.4760 96° East 219 252 8,300 -780 Descending FlightAware
02:21PM 34.0140 -118.4400 86° East 215 247 7,500 -2,160 Descending FlightAware
02:21PM 34.0190 -118.3880 83° East 210 242 6,200 -2,400 Descending FlightAware
02:22PM 34.0210 -118.3690 83° East 212 244 5,700 -1,800 Descending FlightAware
02:22PM 34.0230 -118.3400 85° East 212 244 5,000 -1,620 Descending FlightAware
02:22PM 34.0260 -118.3170 81° East 209 241 4,500 -1,200 Descending FlightAware
02:23PM 34.0280 -118.3010 81° East 206 237 4,300 -720 Descending FlightAware
02:23PM 34.0320 -118.2610 83° East 197 227 3,800 -1,020 Descending FlightAware
02:24PM 34.0340 -118.2320 85° East 193 222 3,300 -1,140 Descending FlightAware
02:24PM 34.0310 -118.2180 104° East 193 222 3,100 -780 Descending FlightAware
02:24PM 34.0170 -118.2070 147° Southeast 189 217 2,900 -420 Descending FlightAware
02:25PM 34.0040 -118.2050 173° South 189 217 2,900  Level FlightAware
02:25PM 33.9850 -118.2180 210° Southwest 178 205 2,900  Level FlightAware
02:25PM 33.9830 -118.2220 239° Southwest 170 196 2,900 -1,200 Level FlightAware
02:26PM 33.9690 -118.2550 243° Southwest 192 221 2,100 -1,080 Descending FlightAware
02:26PM 33.9670 -118.2640 255° West 186 214 2,100 -480 Level FlightAware
02:26PM 33.9630 -118.2930 261° West 168 193 1,800 -720 Descending FlightAware
02:27PM 33.9620 -118.3030 263° West 163 188 1,600 -840 Descending FlightAware
02:27PM 33.9610 -118.3170 265° West 151 174 1,400 -780 Descending FlightAware
02:27PM 33.9590 -118.3370 263° West 143 165 1,100 -900 Descending FlightAware
02:28PM 33.9560 -118.3580 260° West 145 167 700 -420 Descending FlightAware
02:28PM 33.9540 -118.3830 264° West 144 166 700 -300 Level FlightAware
02:29PM 33.9530 -118.3980 265° West 145 167 400 -660 Descending FlightAware